Taikasan — 7JYP — position and weather

sailwx.info

Track history (hours):
 
Tides and Currents Weather Stations Pressure Air Temp Water Temp Dewpoint Dewpoint Depression Visibility Wind Speed Wind Dir Waves Ship Positions

Taikasan

Last reported at 2018-Feb-23 10:42 UTC. Time now 2018-Feb-24 03:51 UTC.
Position N 33°17' E 132°01'.

Length 74 m; draft 4.5 m.

Type: Tanker. MMSI: 431412000.

Date/timePositionNaut miles runAvg speedWind from/ knotsBaromVisibWave heightAir tempDewpointWater temp
2018-Feb-23 10:42N 33°17' E 132°01'413.2
2018-Feb-23 10:24N 33°21' E 131°59'713.0
2018-Feb-23 09:51N 33°28' E 131°56'513.3
2018-Feb-23 09:30N 33°32' E 131°55'713.2
2018-Feb-23 09:00N 33°38' E 131°53'612.9
2018-Feb-23 08:30N 33°45' E 131°51'612.4
2018-Feb-23 08:00N 33°50' E 131°48'612.2
2018-Feb-23 07:30N 33°56' E 131°45'510.2
2018-Feb-23 07:00N 34°01' E 131°47'1 2.3
2018-Feb-23 06:30N 34°02' E 131°48'0 0.0
2018-Feb-23 06:00N 34°02' E 131°48'0 0.0
2018-Feb-23 05:30N 34°02' E 131°48'0 0.0
2018-Feb-23 05:00N 34°02' E 131°48'1 0.1
2018-Feb-22 23:28N 34°02' E 131°48'1 2.0
2018-Feb-22 23:00N 34°02' E 131°48'0 0.2
2018-Feb-22 22:10N 34°01' E 131°48'0 0.0
2018-Feb-22 22:00N 34°01' E 131°48'0 0.0
2018-Feb-22 21:28N 34°01' E 131°48'0 0.0
2018-Feb-22 21:00N 34°01' E 131°48'0 0.0
2018-Feb-22 20:29N 34°01' E 131°48'0 0.0
2018-Feb-22 19:59N 34°01' E 131°48'0 0.0
2018-Feb-22 19:23N 34°01' E 131°48'0 0.0
2018-Feb-22 18:59N 34°01' E 131°48'0 0.0
2018-Feb-22 18:26N 34°01' E 131°48'0 0.0
2018-Feb-22 18:00N 34°01' E 131°48'0 0.0
2018-Feb-22 17:30N 34°01' E 131°48'0 0.0
2018-Feb-22 17:00N 34°01' E 131°48'0 0.1
2018-Feb-22 16:30N 34°01' E 131°48'0 0.0
2018-Feb-22 15:59N 34°01' E 131°48'0 0.0
2018-Feb-22 15:26N 34°01' E 131°48'0 0.0
2018-Feb-22 14:59N 34°01' E 131°48'0 0.0
2018-Feb-22 14:30N 34°01' E 131°48'0 0.1
2018-Feb-22 13:59N 34°01' E 131°48'0 0.0
2018-Feb-22 13:28N 34°01' E 131°48'0 0.0
2018-Feb-22 12:52N 34°01' E 131°48'0 0.0
2018-Feb-22 12:26N 34°01' E 131°48'0 0.0
2018-Feb-22 12:00N 34°01' E 131°48'0 0.0
2018-Feb-22 11:30N 34°01' E 131°48'0 0.1
2018-Feb-22 10:56N 34°01' E 131°48'0 0.0
2018-Feb-22 10:29N 34°01' E 131°48'0 0.0
2018-Feb-22 10:00N 34°01' E 131°48'0 0.0
2018-Feb-22 09:26N 34°01' E 131°48'0 0.0
2018-Feb-22 08:59N 34°01' E 131°48'0 0.0
2018-Feb-22 08:27N 34°01' E 131°48'0 0.1
2018-Feb-22 07:56N 34°01' E 131°48'1 1.3
2018-Feb-22 07:30N 34°01' E 131°48'4 9.1
2018-Feb-22 07:00N 33°57' E 131°46'611.5
2018-Feb-22 06:30N 33°51' E 131°48'611.6
2018-Feb-22 06:00N 33°46' E 131°50'611.4
2018-Feb-22 05:30N 33°40' E 131°52'611.6
2018-Feb-22 05:00N 33°35' E 131°54'611.8
2018-Feb-22 04:30N 33°29' E 131°56'612.2
2018-Feb-22 04:00N 33°23' E 131°58'611.9
2018-Feb-22 03:30N 33°18' E 132°01'1012.7
2018-Feb-22 02:42N 33°10' E 132°08'31110.8
2018-Feb-20 21:53N 34°31' E 138°10'410.1
2018-Feb-20 21:29N 34°33' E 138°15'610.9
2018-Feb-20 20:54N 34°35' E 138°22'511.0
2018-Feb-20 20:29N 34°38' E 138°27'5 9.5
2018-Feb-20 19:58N 34°38' E 138°32'4 9.1
2018-Feb-20 19:29N 34°37' E 138°38'5 9.0
2018-Feb-20 18:58N 34°35' E 138°43'4 9.2
2018-Feb-20 18:29N 34°34' E 138°48'4 8.0
2018-Feb-20 17:57N 34°33' E 138°53'3 7.2
2018-Feb-20 17:30N 34°33' E 138°57'4 8.6
2018-Feb-20 17:00N 34°36' E 139°01'510.4
2018-Feb-20 16:30N 34°40' E 139°05'611.2
2018-Feb-20 15:58N 34°44' E 139°09'1610.8
2018-Feb-20 14:30N 34°55' E 139°23'611.6
2018-Feb-20 13:58N 34°59' E 139°30'611.6
2018-Feb-20 13:29N 35°02' E 139°35'611.6
2018-Feb-20 13:00N 35°06' E 139°40'611.9
2018-Feb-20 12:30N 35°10' E 139°45'611.5
2018-Feb-20 12:00N 35°16' E 139°46'612.1
2018-Feb-20 11:30N 35°22' E 139°42'611.1
2018-Feb-20 11:00N 35°26' E 139°46'611.9
2018-Feb-20 10:30N 35°30' E 139°52'611.5
2018-Feb-20 09:59N 35°31' E 139°59'3 5.0
2018-Feb-20 09:23N 35°30' E 140°02'0 0.0
2018-Feb-20 08:59N 35°30' E 140°02'0 0.0
2018-Feb-20 08:26N 35°30' E 140°02'0 0.0
2018-Feb-20 08:00N 35°30' E 140°02'0 0.0
2018-Feb-20 07:15N 35°30' E 140°02'0 0.0
2018-Feb-20 06:41N 35°30' E 140°02'0 0.0
2018-Feb-20 06:29N 35°30' E 140°02'0 0.0
2018-Feb-20 05:57N 35°30' E 140°02'0 0.0
2018-Feb-20 05:14N 35°30' E 140°02'0 1.9
2018-Feb-20 05:00N 35°30' E 140°02'2 3.5
2018-Feb-20 04:30N 35°31' E 139°60'4 7.3
2018-Feb-20 04:00N 35°30' E 139°56'611.7
2018-Feb-20 03:30N 35°27' E 139°49'611.4
2018-Feb-20 03:00N 35°22' E 139°45'510.3
2018-Feb-20 02:30N 35°17' E 139°46'510.4
2018-Feb-20 01:59N 35°12' E 139°46'611.7
2018-Feb-20 01:30N 35°06' E 139°45'611.0
2018-Feb-20 00:59N 35°02' E 139°40'511.1
2018-Feb-20 00:30N 34°59' E 139°35'1111.0
2018-Feb-19 23:31N 34°52' E 139°24'510.7
2018-Feb-19 23:01N 34°49' E 139°19'110.6
2018-Feb-19 22:56N 34°48' E 139°18'610.9
2018-Feb-19 22:21N 34°44' E 139°13'510.7
2018-Feb-19 21:53N 34°41' E 139°08'510.1
2018-Feb-19 21:22N 34°37' E 139°03'510.7
2018-Feb-19 20:56N 34°34' E 138°59'2812.1
2018-Feb-19 18:36N 34°30' E 138°25'612.6
2018-Feb-19 18:09N 34°30' E 138°19'413.4
2018-Feb-19 17:53N 34°30' E 138°14'31811.0
2018-Feb-18 12:58N 33°17' E 132°02'511.1
2018-Feb-18 12:28N 33°22' E 131°59'510.9
2018-Feb-18 12:00N 33°27' E 131°57'611.0
2018-Feb-18 11:27N 33°33' E 131°55'510.9
2018-Feb-18 11:00N 33°37' E 131°53'611.1
2018-Feb-18 10:30N 33°43' E 131°51'611.3
2018-Feb-18 10:00N 33°48' E 131°49'611.7
2018-Feb-18 09:29N 33°54' E 131°46'611.8
2018-Feb-18 09:00N 33°59' E 131°45'4 7.2
2018-Feb-18 08:30N 34°03' E 131°45'0 0.1
2018-Feb-18 08:00N 34°03' E 131°45'0 0.0
2018-Feb-18 07:30N 34°03' E 131°45'0 0.0
2018-Feb-18 07:00N 34°03' E 131°45'0 0.0
2018-Feb-18 06:30N 34°03' E 131°45'0 0.0
2018-Feb-18 06:00N 34°03' E 131°45'0 0.0
2018-Feb-18 05:30N 34°03' E 131°45'0 0.0
2018-Feb-18 05:00N 34°03' E 131°45'0 0.0
2018-Feb-18 04:30N 34°03' E 131°45'0 0.0
2018-Feb-18 04:00N 34°03' E 131°45'0 0.1
2018-Feb-18 03:30N 34°03' E 131°45'3 5.8
2018-Feb-18 03:00N 34°00' E 131°44'611.8
2018-Feb-18 02:28N 33°55' E 131°49'812.1
2018-Feb-18 01:46N 33°50' E 131°57'611.8
2018-Feb-18 01:13N 33°46' E 132°03'411.5
2018-Feb-18 00:50N 33°48' E 132°08'711.0
2018-Feb-18 00:14N 33°50' E 132°15'411.3
2018-Feb-17 23:55N 33°50' E 132°20'710.1
2018-Feb-17 23:14N 33°53' E 132°27'510.4
2018-Feb-17 22:44N 33°57' E 132°32'410.6
2018-Feb-17 22:21N 33°60' E 132°35'411.7
2018-Feb-17 22:00N 34°03' E 132°38'2312.1
2018-Feb-17 20:07N 34°18' E 132°59'6110.6
2018-Feb-17 14:21N 34°25' E 134°13'711.4
2018-Feb-17 13:46N 34°22' E 134°20'311.1
2018-Feb-17 13:28N 34°20' E 134°24'510.8
2018-Feb-17 13:00N 34°18' E 134°30'510.4
2018-Feb-17 12:30N 34°16' E 134°35'5 9.7
2018-Feb-17 12:00N 34°13' E 134°40'511.0
2018-Feb-17 11:30N 34°09' E 134°44'510.5
2018-Feb-17 11:01N 34°05' E 134°48'510.4
2018-Feb-17 10:30N 34°01' E 134°52'510.4
2018-Feb-17 10:01N 33°57' E 134°56'510.3
2018-Feb-17 09:31N 33°53' E 134°60'5 9.8
2018-Feb-17 09:00N 33°49' E 135°04'152 9.7
2018-Feb-16 17:15N 34°27' E 138°02'311.0
2018-Feb-16 16:58N 34°28' E 138°05'610.4
2018-Feb-16 16:24N 34°29' E 138°12'510.1
2018-Feb-16 15:57N 34°30' E 138°18'5 9.7
2018-Feb-16 15:29N 34°31' E 138°23'610.3
2018-Feb-16 14:56N 34°31' E 138°30'510.8
2018-Feb-16 14:30N 34°32' E 138°36'610.3
2018-Feb-16 13:57N 34°32' E 138°43'510.1
2018-Feb-16 13:29N 34°32' E 138°48'510.3
2018-Feb-16 13:00N 34°33' E 138°54'5 9.2
2018-Feb-16 12:27N 34°35' E 139°00'510.3
2018-Feb-16 12:00N 34°38' E 139°03'810.7
2018-Feb-16 11:17N 34°44' E 139°09'310.5
2018-Feb-16 11:00N 34°46' E 139°12'510.6
2018-Feb-16 10:30N 34°50' E 139°16'510.6
2018-Feb-16 10:00N 34°54' E 139°21'510.0
2018-Feb-16 09:30N 34°57' E 139°26'5 9.7
2018-Feb-16 08:58N 34°60' E 139°31'510.7
2018-Feb-16 08:30N 35°03' E 139°36'612.1
2018-Feb-16 08:00N 35°07' E 139°41'612.0
2018-Feb-16 07:30N 35°12' E 139°46'510.7
2018-Feb-16 07:00N 35°17' E 139°45'611.3
2018-Feb-16 06:31N 35°22' E 139°42'611.1
2018-Feb-16 06:01N 35°27' E 139°46'611.6
2018-Feb-16 05:30N 35°30' E 139°52'611.4
2018-Feb-16 05:00N 35°31' E 139°59'3 0.5
2018-Feb-15 23:19N 35°30' E 140°02'1 1.8
2018-Feb-15 23:00N 35°30' E 140°02'3 4.6
2018-Feb-15 22:28N 35°31' E 139°58'3 4.8
2018-Feb-15 21:56N 35°29' E 139°56'0 0.0
2018-Feb-15 20:49N 35°29' E 139°56'0 0.0
2018-Feb-15 20:23N 35°29' E 139°56'0 0.0
2018-Feb-15 19:58N 35°29' E 139°56'0 0.0
2018-Feb-15 19:22N 35°29' E 139°56'0 0.0
2018-Feb-15 18:53N 35°29' E 139°56'0 0.1
2018-Feb-15 18:22N 35°29' E 139°56'0 0.0
2018-Feb-15 17:59N 35°29' E 139°56'0 0.1
2018-Feb-15 17:26N 35°29' E 139°56'0 0.0
2018-Feb-15 13:40N 35°29' E 139°56'0 0.0
2018-Feb-15 13:22N 35°29' E 139°56'0 0.0
2018-Feb-15 12:53N 35°29' E 139°56'0 0.0
2018-Feb-15 11:19N 35°29' E 139°56'0 0.0
2018-Feb-15 10:32N 35°29' E 139°56'0 0.0
2018-Feb-15 09:26N 35°29' E 139°56'0 0.0
2018-Feb-15 08:58N 35°29' E 139°56'0 0.0
2018-Feb-15 08:28N 35°29' E 139°56'0 0.0
2018-Feb-15 07:56N 35°29' E 139°56'0 0.0
2018-Feb-15 07:29N 35°29' E 139°56'0 0.0
2018-Feb-15 06:59N 35°29' E 139°56'0 0.0
2018-Feb-15 06:25N 35°29' E 139°56'0 0.0
2018-Feb-15 05:52N 35°29' E 139°56'0 0.0
2018-Feb-15 03:58N 35°29' E 139°56'0 0.0
2018-Feb-15 03:22N 35°29' E 139°56'0 0.0
2018-Feb-15 02:22N 35°29' E 139°56'0 0.0
2018-Feb-15 01:55N 35°29' E 139°56'0 0.0
2018-Feb-15 01:28N 35°29' E 139°56'0 0.0
2018-Feb-14 23:43N 35°29' E 139°56'0 0.2
2018-Feb-14 23:28N 35°29' E 139°56'0 0.1
2018-Feb-14 22:58N 35°29' E 139°56'0 0.0
2018-Feb-14 22:28N 35°29' E 139°56'0 0.1
2018-Feb-14 21:55N 35°29' E 139°56'0 0.0
2018-Feb-14 21:25N 35°29' E 139°56'0 0.0
2018-Feb-14 20:58N 35°29' E 139°56'0 0.0
2018-Feb-14 20:28N 35°29' E 139°56'0 0.0
2018-Feb-14 19:55N 35°29' E 139°56'0 0.0
2018-Feb-14 19:28N 35°29' E 139°56'0 0.0
2018-Feb-14 18:55N 35°29' E 139°56'0 0.0
2018-Feb-14 18:28N 35°29' E 139°56'0 0.0
2018-Feb-14 17:58N 35°29' E 139°56'0 0.0
2018-Feb-14 17:28N 35°29' E 139°56'0 0.0
2018-Feb-14 16:55N 35°29' E 139°56'0 0.0
2018-Feb-14 16:28N 35°29' E 139°56'0 0.0
2018-Feb-14 15:58N 35°29' E 139°56'0 0.0
2018-Feb-14 15:28N 35°29' E 139°56'0 0.0
2018-Feb-14 14:58N 35°29' E 139°56'0 0.0
2018-Feb-14 14:25N 35°29' E 139°56'0 0.0
2018-Feb-14 13:58N 35°29' E 139°56'0 0.0
2018-Feb-14 13:28N 35°29' E 139°56'0 0.0
2018-Feb-14 12:58N 35°29' E 139°56'0 0.0
2018-Feb-14 12:28N 35°29' E 139°56'2 5.3
2018-Feb-14 12:00N 35°29' E 139°53'611.8
2018-Feb-14 11:29N 35°25' E 139°47'511.5
2018-Feb-14 11:00N 35°20' E 139°44'510.3
2018-Feb-14 10:31N 35°15' E 139°47'611.1
2018-Feb-14 10:00N 35°10' E 139°46'611.4
2018-Feb-14 09:30N 35°04' E 139°44'612.9
2018-Feb-14 09:00N 35°00' E 139°38'2014.0
2018-Feb-14 07:35N 34°48' E 139°18'113.8
2018-Feb-14 07:29N 34°47' E 139°17'913.7
2018-Feb-14 06:48N 34°41' E 139°09'413.0
2018-Feb-14 06:30N 34°38' E 139°05'612.0
2018-Feb-14 05:59N 34°34' E 138°60'1712.3
2018-Feb-14 04:36N 34°31' E 138°39'212.2
2018-Feb-14 04:25N 34°31' E 138°37'712.0
2018-Feb-14 03:53N 34°30' E 138°29'411.9
2018-Feb-14 03:30N 34°30' E 138°23'712.7
2018-Feb-14 02:57N 34°29' E 138°15'16710.7
2018-Feb-13 11:18N 33°55' E 134°57'512.2
2018-Feb-13 10:55N 33°59' E 134°54'  
Track history (hours):
 
Tides and Currents Weather Stations Pressure Air Temp Water Temp Dewpoint Dewpoint Depression Visibility Wind Speed Wind Dir Waves Ship Positions

Taikasan

Last reported at 2018-Feb-23 10:42 UTC. Time now 2018-Feb-24 03:51 UTC.
Position N 33°17' E 132°01'.

Length 74 m; draft 4.5 m.

Type: Tanker. MMSI: 431412000.

Date/timePositionNaut miles runAvg speedWind from/ knotsBaromVisibWave heightAir tempDewpointWater temp
2018-Feb-23 10:42N 33°17' E 132°01'413.2
2018-Feb-23 10:24N 33°21' E 131°59'713.0
2018-Feb-23 09:51N 33°28' E 131°56'513.3
2018-Feb-23 09:30N 33°32' E 131°55'713.2
2018-Feb-23 09:00N 33°38' E 131°53'612.9
2018-Feb-23 08:30N 33°45' E 131°51'612.4
2018-Feb-23 08:00N 33°50' E 131°48'612.2
2018-Feb-23 07:30N 33°56' E 131°45'510.2
2018-Feb-23 07:00N 34°01' E 131°47'1 2.3
2018-Feb-23 06:30N 34°02' E 131°48'0 0.0
2018-Feb-23 06:00N 34°02' E 131°48'0 0.0
2018-Feb-23 05:30N 34°02' E 131°48'0 0.0
2018-Feb-23 05:00N 34°02' E 131°48'1 0.1
2018-Feb-22 23:28N 34°02' E 131°48'1 2.0
2018-Feb-22 23:00N 34°02' E 131°48'0 0.2
2018-Feb-22 22:10N 34°01' E 131°48'0 0.0
2018-Feb-22 22:00N 34°01' E 131°48'0 0.0
2018-Feb-22 21:28N 34°01' E 131°48'0 0.0
2018-Feb-22 21:00N 34°01' E 131°48'0 0.0
2018-Feb-22 20:29N 34°01' E 131°48'0 0.0
2018-Feb-22 19:59N 34°01' E 131°48'0 0.0
2018-Feb-22 19:23N 34°01' E 131°48'0 0.0
2018-Feb-22 18:59N 34°01' E 131°48'0 0.0
2018-Feb-22 18:26N 34°01' E 131°48'0 0.0
2018-Feb-22 18:00N 34°01' E 131°48'0 0.0
2018-Feb-22 17:30N 34°01' E 131°48'0 0.0
2018-Feb-22 17:00N 34°01' E 131°48'0 0.1
2018-Feb-22 16:30N 34°01' E 131°48'0 0.0
2018-Feb-22 15:59N 34°01' E 131°48'0 0.0
2018-Feb-22 15:26N 34°01' E 131°48'0 0.0
2018-Feb-22 14:59N 34°01' E 131°48'0 0.0
2018-Feb-22 14:30N 34°01' E 131°48'0 0.1
2018-Feb-22 13:59N 34°01' E 131°48'0 0.0
2018-Feb-22 13:28N 34°01' E 131°48'0 0.0
2018-Feb-22 12:52N 34°01' E 131°48'0 0.0
2018-Feb-22 12:26N 34°01' E 131°48'0 0.0
2018-Feb-22 12:00N 34°01' E 131°48'0 0.0
2018-Feb-22 11:30N 34°01' E 131°48'0 0.1
2018-Feb-22 10:56N 34°01' E 131°48'0 0.0
2018-Feb-22 10:29N 34°01' E 131°48'0 0.0
2018-Feb-22 10:00N 34°01' E 131°48'0 0.0
2018-Feb-22 09:26N 34°01' E 131°48'0 0.0
2018-Feb-22 08:59N 34°01' E 131°48'0 0.0
2018-Feb-22 08:27N 34°01' E 131°48'0 0.1
2018-Feb-22 07:56N 34°01' E 131°48'1 1.3
2018-Feb-22 07:30N 34°01' E 131°48'4 9.1
2018-Feb-22 07:00N 33°57' E 131°46'611.5
2018-Feb-22 06:30N 33°51' E 131°48'611.6
2018-Feb-22 06:00N 33°46' E 131°50'611.4
2018-Feb-22 05:30N 33°40' E 131°52'611.6
2018-Feb-22 05:00N 33°35' E 131°54'611.8
2018-Feb-22 04:30N 33°29' E 131°56'612.2
2018-Feb-22 04:00N 33°23' E 131°58'611.9
2018-Feb-22 03:30N 33°18' E 132°01'1012.7
2018-Feb-22 02:42N 33°10' E 132°08'31110.8
2018-Feb-20 21:53N 34°31' E 138°10'410.1
2018-Feb-20 21:29N 34°33' E 138°15'610.9
2018-Feb-20 20:54N 34°35' E 138°22'511.0
2018-Feb-20 20:29N 34°38' E 138°27'5 9.5
2018-Feb-20 19:58N 34°38' E 138°32'4 9.1
2018-Feb-20 19:29N 34°37' E 138°38'5 9.0
2018-Feb-20 18:58N 34°35' E 138°43'4 9.2
2018-Feb-20 18:29N 34°34' E 138°48'4 8.0
2018-Feb-20 17:57N 34°33' E 138°53'3 7.2
2018-Feb-20 17:30N 34°33' E 138°57'4 8.6
2018-Feb-20 17:00N 34°36' E 139°01'510.4
2018-Feb-20 16:30N 34°40' E 139°05'611.2
2018-Feb-20 15:58N 34°44' E 139°09'1610.8
2018-Feb-20 14:30N 34°55' E 139°23'611.6
2018-Feb-20 13:58N 34°59' E 139°30'611.6
2018-Feb-20 13:29N 35°02' E 139°35'611.6
2018-Feb-20 13:00N 35°06' E 139°40'611.9
2018-Feb-20 12:30N 35°10' E 139°45'611.5
2018-Feb-20 12:00N 35°16' E 139°46'612.1
2018-Feb-20 11:30N 35°22' E 139°42'611.1
2018-Feb-20 11:00N 35°26' E 139°46'611.9
2018-Feb-20 10:30N 35°30' E 139°52'611.5
2018-Feb-20 09:59N 35°31' E 139°59'3 5.0
2018-Feb-20 09:23N 35°30' E 140°02'0 0.0
2018-Feb-20 08:59N 35°30' E 140°02'0 0.0
2018-Feb-20 08:26N 35°30' E 140°02'0 0.0
2018-Feb-20 08:00N 35°30' E 140°02'0 0.0
2018-Feb-20 07:15N 35°30' E 140°02'0 0.0
2018-Feb-20 06:41N 35°30' E 140°02'0 0.0
2018-Feb-20 06:29N 35°30' E 140°02'0 0.0
2018-Feb-20 05:57N 35°30' E 140°02'0 0.0
2018-Feb-20 05:14N 35°30' E 140°02'0 1.9
2018-Feb-20 05:00N 35°30' E 140°02'2 3.5
2018-Feb-20 04:30N 35°31' E 139°60'4 7.3
2018-Feb-20 04:00N 35°30' E 139°56'611.7
2018-Feb-20 03:30N 35°27' E 139°49'611.4
2018-Feb-20 03:00N 35°22' E 139°45'510.3
2018-Feb-20 02:30N 35°17' E 139°46'510.4
2018-Feb-20 01:59N 35°12' E 139°46'611.7
2018-Feb-20 01:30N 35°06' E 139°45'611.0
2018-Feb-20 00:59N 35°02' E 139°40'511.1
2018-Feb-20 00:30N 34°59' E 139°35'1111.0
2018-Feb-19 23:31N 34°52' E 139°24'510.7
2018-Feb-19 23:01N 34°49' E 139°19'110.6
2018-Feb-19 22:56N 34°48' E 139°18'610.9
2018-Feb-19 22:21N 34°44' E 139°13'510.7
2018-Feb-19 21:53N 34°41' E 139°08'510.1
2018-Feb-19 21:22N 34°37' E 139°03'510.7
2018-Feb-19 20:56N 34°34' E 138°59'2812.1
2018-Feb-19 18:36N 34°30' E 138°25'612.6
2018-Feb-19 18:09N 34°30' E 138°19'413.4
2018-Feb-19 17:53N 34°30' E 138°14'31811.0
2018-Feb-18 12:58N 33°17' E 132°02'511.1
2018-Feb-18 12:28N 33°22' E 131°59'510.9
2018-Feb-18 12:00N 33°27' E 131°57'611.0
2018-Feb-18 11:27N 33°33' E 131°55'510.9
2018-Feb-18 11:00N 33°37' E 131°53'611.1
2018-Feb-18 10:30N 33°43' E 131°51'611.3
2018-Feb-18 10:00N 33°48' E 131°49'611.7
2018-Feb-18 09:29N 33°54' E 131°46'611.8
2018-Feb-18 09:00N 33°59' E 131°45'4 7.2
2018-Feb-18 08:30N 34°03' E 131°45'0 0.1
2018-Feb-18 08:00N 34°03' E 131°45'0 0.0
2018-Feb-18 07:30N 34°03' E 131°45'0 0.0
2018-Feb-18 07:00N 34°03' E 131°45'0 0.0
2018-Feb-18 06:30N 34°03' E 131°45'0 0.0
2018-Feb-18 06:00N 34°03' E 131°45'0 0.0
2018-Feb-18 05:30N 34°03' E 131°45'0 0.0
2018-Feb-18 05:00N 34°03' E 131°45'0 0.0
2018-Feb-18 04:30N 34°03' E 131°45'0 0.0
2018-Feb-18 04:00N 34°03' E 131°45'0 0.1
2018-Feb-18 03:30N 34°03' E 131°45'3 5.8
2018-Feb-18 03:00N 34°00' E 131°44'611.8
2018-Feb-18 02:28N 33°55' E 131°49'812.1
2018-Feb-18 01:46N 33°50' E 131°57'611.8
2018-Feb-18 01:13N 33°46' E 132°03'411.5
2018-Feb-18 00:50N 33°48' E 132°08'711.0
2018-Feb-18 00:14N 33°50' E 132°15'411.3
2018-Feb-17 23:55N 33°50' E 132°20'710.1
2018-Feb-17 23:14N 33°53' E 132°27'510.4
2018-Feb-17 22:44N 33°57' E 132°32'410.6
2018-Feb-17 22:21N 33°60' E 132°35'411.7
2018-Feb-17 22:00N 34°03' E 132°38'2312.1
2018-Feb-17 20:07N 34°18' E 132°59'6110.6
2018-Feb-17 14:21N 34°25' E 134°13'711.4
2018-Feb-17 13:46N 34°22' E 134°20'311.1
2018-Feb-17 13:28N 34°20' E 134°24'510.8
2018-Feb-17 13:00N 34°18' E 134°30'510.4
2018-Feb-17 12:30N 34°16' E 134°35'5 9.7
2018-Feb-17 12:00N 34°13' E 134°40'511.0
2018-Feb-17 11:30N 34°09' E 134°44'510.5
2018-Feb-17 11:01N 34°05' E 134°48'510.4
2018-Feb-17 10:30N 34°01' E 134°52'510.4
2018-Feb-17 10:01N 33°57' E 134°56'510.3
2018-Feb-17 09:31N 33°53' E 134°60'5 9.8
2018-Feb-17 09:00N 33°49' E 135°04'152 9.7
2018-Feb-16 17:15N 34°27' E 138°02'311.0
2018-Feb-16 16:58N 34°28' E 138°05'610.4
2018-Feb-16 16:24N 34°29' E 138°12'510.1
2018-Feb-16 15:57N 34°30' E 138°18'5 9.7
2018-Feb-16 15:29N 34°31' E 138°23'610.3
2018-Feb-16 14:56N 34°31' E 138°30'510.8
2018-Feb-16 14:30N 34°32' E 138°36'610.3
2018-Feb-16 13:57N 34°32' E 138°43'510.1
2018-Feb-16 13:29N 34°32' E 138°48'510.3
2018-Feb-16 13:00N 34°33' E 138°54'5 9.2
2018-Feb-16 12:27N 34°35' E 139°00'510.3
2018-Feb-16 12:00N 34°38' E 139°03'810.7
2018-Feb-16 11:17N 34°44' E 139°09'310.5
2018-Feb-16 11:00N 34°46' E 139°12'510.6
2018-Feb-16 10:30N 34°50' E 139°16'510.6
2018-Feb-16 10:00N 34°54' E 139°21'510.0
2018-Feb-16 09:30N 34°57' E 139°26'5 9.7
2018-Feb-16 08:58N 34°60' E 139°31'510.7
2018-Feb-16 08:30N 35°03' E 139°36'612.1
2018-Feb-16 08:00N 35°07' E 139°41'612.0
2018-Feb-16 07:30N 35°12' E 139°46'510.7
2018-Feb-16 07:00N 35°17' E 139°45'611.3
2018-Feb-16 06:31N 35°22' E 139°42'611.1
2018-Feb-16 06:01N 35°27' E 139°46'611.6
2018-Feb-16 05:30N 35°30' E 139°52'611.4
2018-Feb-16 05:00N 35°31' E 139°59'3 0.5
2018-Feb-15 23:19N 35°30' E 140°02'1 1.8
2018-Feb-15 23:00N 35°30' E 140°02'3 4.6
2018-Feb-15 22:28N 35°31' E 139°58'3 4.8
2018-Feb-15 21:56N 35°29' E 139°56'0 0.0
2018-Feb-15 20:49N 35°29' E 139°56'0 0.0
2018-Feb-15 20:23N 35°29' E 139°56'0 0.0
2018-Feb-15 19:58N 35°29' E 139°56'0 0.0
2018-Feb-15 19:22N 35°29' E 139°56'0 0.0
2018-Feb-15 18:53N 35°29' E 139°56'0 0.1
2018-Feb-15 18:22N 35°29' E 139°56'0 0.0
2018-Feb-15 17:59N 35°29' E 139°56'0 0.1
2018-Feb-15 17:26N 35°29' E 139°56'0 0.0
2018-Feb-15 13:40N 35°29' E 139°56'0 0.0
2018-Feb-15 13:22N 35°29' E 139°56'0 0.0
2018-Feb-15 12:53N 35°29' E 139°56'0 0.0
2018-Feb-15 11:19N 35°29' E 139°56'0 0.0
2018-Feb-15 10:32N 35°29' E 139°56'0 0.0
2018-Feb-15 09:26N 35°29' E 139°56'0 0.0
2018-Feb-15 08:58N 35°29' E 139°56'0 0.0
2018-Feb-15 08:28N 35°29' E 139°56'0 0.0
2018-Feb-15 07:56N 35°29' E 139°56'0 0.0
2018-Feb-15 07:29N 35°29' E 139°56'0 0.0
2018-Feb-15 06:59N 35°29' E 139°56'0 0.0
2018-Feb-15 06:25N 35°29' E 139°56'0 0.0
2018-Feb-15 05:52N 35°29' E 139°56'0 0.0
2018-Feb-15 03:58N 35°29' E 139°56'0 0.0
2018-Feb-15 03:22N 35°29' E 139°56'0 0.0
2018-Feb-15 02:22N 35°29' E 139°56'0 0.0
2018-Feb-15 01:55N 35°29' E 139°56'0 0.0
2018-Feb-15 01:28N 35°29' E 139°56'0 0.0
2018-Feb-14 23:43N 35°29' E 139°56'0 0.2
2018-Feb-14 23:28N 35°29' E 139°56'0 0.1
2018-Feb-14 22:58N 35°29' E 139°56'0 0.0
2018-Feb-14 22:28N 35°29' E 139°56'0 0.1
2018-Feb-14 21:55N 35°29' E 139°56'0 0.0
2018-Feb-14 21:25N 35°29' E 139°56'0 0.0
2018-Feb-14 20:58N 35°29' E 139°56'0 0.0
2018-Feb-14 20:28N 35°29' E 139°56'0 0.0
2018-Feb-14 19:55N 35°29' E 139°56'0 0.0
2018-Feb-14 19:28N 35°29' E 139°56'0 0.0
2018-Feb-14 18:55N 35°29' E 139°56'0 0.0
2018-Feb-14 18:28N 35°29' E 139°56'0 0.0
2018-Feb-14 17:58N 35°29' E 139°56'0 0.0
2018-Feb-14 17:28N 35°29' E 139°56'0 0.0
2018-Feb-14 16:55N 35°29' E 139°56'0 0.0
2018-Feb-14 16:28N 35°29' E 139°56'0 0.0
2018-Feb-14 15:58N 35°29' E 139°56'0 0.0
2018-Feb-14 15:28N 35°29' E 139°56'0 0.0
2018-Feb-14 14:58N 35°29' E 139°56'0 0.0
2018-Feb-14 14:25N 35°29' E 139°56'0 0.0
2018-Feb-14 13:58N 35°29' E 139°56'0 0.0
2018-Feb-14 13:28N 35°29' E 139°56'0 0.0
2018-Feb-14 12:58N 35°29' E 139°56'0 0.0
2018-Feb-14 12:28N 35°29' E 139°56'2 5.3
2018-Feb-14 12:00N 35°29' E 139°53'611.8
2018-Feb-14 11:29N 35°25' E 139°47'511.5
2018-Feb-14 11:00N 35°20' E 139°44'510.3
2018-Feb-14 10:31N 35°15' E 139°47'611.1
2018-Feb-14 10:00N 35°10' E 139°46'611.4
2018-Feb-14 09:30N 35°04' E 139°44'612.9
2018-Feb-14 09:00N 35°00' E 139°38'2014.0
2018-Feb-14 07:35N 34°48' E 139°18'113.8
2018-Feb-14 07:29N 34°47' E 139°17'913.7
2018-Feb-14 06:48N 34°41' E 139°09'413.0
2018-Feb-14 06:30N 34°38' E 139°05'612.0
2018-Feb-14 05:59N 34°34' E 138°60'1712.3
2018-Feb-14 04:36N 34°31' E 138°39'212.2
2018-Feb-14 04:25N 34°31' E 138°37'712.0
2018-Feb-14 03:53N 34°30' E 138°29'411.9
2018-Feb-14 03:30N 34°30' E 138°23'712.7
2018-Feb-14 02:57N 34°29' E 138°15'16710.7
2018-Feb-13 11:18N 33°55' E 134°57'512.2
2018-Feb-13 10:55N 33°59' E 134°54'  

Dump ship's entire track history